Time;durP1;ratioP1;P1;durP2;ratioP2;P2;SDS_P1;SDS_P2;PMS_P1;PMS_P2;Temp;Humidity;BMP_temperature;BMP_pressure;BME280_temperature;BME280_humidity;BME280_pressure;Samples;Min_cycle;Max_cycle;Signal;HPM_P1;HPM_P2
2021/03/17 00:02:11;;;;;;;2.20;2.10;;;;;;;3.51;86.00;101852.88;5310037;26;20340;-72
2021/03/17 00:04:36;;;;;;;2.10;2.00;;;;;;;3.69;85.99;101880.44;5333192;26;20054;-71
2021/03/17 00:07:02;;;;;;;2.17;2.08;;;;;;;4.25;86.08;101966.75;5335603;26;20576;-72
2021/03/17 00:09:27;;;;;;;2.20;2.10;;;;;;;4.22;86.23;101965.03;5334141;26;20104;-71
2021/03/17 00:11:52;;;;;;;2.20;2.10;;;;;;;4.21;86.78;101973.72;5335687;26;20620;-71
2021/03/17 00:14:18;;;;;;;2.40;2.30;;;;;;;4.18;86.64;101976.31;5334158;26;20422;-72
2021/03/17 00:16:43;;;;;;;2.35;2.25;;;;;;;4.09;86.82;101956.47;5334615;26;20039;-74
2021/03/17 00:19:09;;;;;;;2.30;2.20;;;;;;;4.20;86.72;101966.78;5335382;26;20054;-74
2021/03/17 00:21:34;;;;;;;2.20;2.10;;;;;;;3.52;86.88;101865.81;5335390;26;20112;-72
2021/03/17 00:23:59;;;;;;;2.37;2.28;;;;;;;3.43;87.13;101865.88;5335343;26;20034;-71
2021/03/17 00:26:25;;;;;;;2.30;2.20;;;;;;;4.18;87.03;101976.31;5335345;26;20031;-71
2021/03/17 00:28:50;;;;;;;2.40;2.30;;;;;;;4.19;86.84;101981.53;5336696;26;20054;-72
2021/03/17 00:31:15;;;;;;;2.62;2.50;;;;;;;3.99;87.28;101959.97;5334301;26;20077;-71
2021/03/17 00:33:41;;;;;;;2.35;2.25;;;;;;;3.57;86.94;101894.37;5354348;26;20059;-72
2021/03/17 00:36:06;;;;;;;2.33;2.22;;;;;;;4.06;87.11;102010.16;5352363;26;20050;-73
2021/03/17 00:38:31;;;;;;;2.30;2.20;;;;;;;3.72;86.80;101941.03;5336195;26;20446;-72
2021/03/17 00:40:57;;;;;;;2.85;2.50;;;;;;;4.05;87.27;101996.31;5336308;26;20054;-73
2021/03/17 00:43:22;;;;;;;2.30;2.20;;;;;;;4.03;86.93;101998.06;5335431;26;20062;-72
2021/03/17 00:45:47;;;;;;;2.20;2.10;;;;;;;3.94;86.94;102003.28;5335135;26;20043;-73
2021/03/17 00:48:13;;;;;;;2.00;1.90;;;;;;;3.92;86.86;102000.66;5336370;26;20031;-72
2021/03/17 00:50:38;;;;;;;2.62;2.53;;;;;;;3.91;86.58;102013.66;5334759;26;20107;-72
2021/03/17 00:53:03;;;;;;;2.40;2.30;;;;;;;3.89;86.62;102021.47;5336779;26;20057;-72
2021/03/17 00:55:29;;;;;;;3.03;2.92;;;;;;;3.78;86.54;102003.31;5335997;26;20044;-73
2021/03/17 00:57:54;;;;;;;2.12;2.03;;;;;;;3.11;86.07;101891.91;5335255;26;20058;-74
2021/03/17 01:00:20;;;;;;;2.85;2.35;;;;;;;3.89;86.13;102018.88;5333045;26;20034;-74
2021/03/17 01:02:45;;;;;;;2.10;2.00;;;;;;;3.40;85.80;101923.81;5331059;26;20054;-74
2021/03/17 01:05:11;;;;;;;3.75;3.62;;;;;;;3.88;86.48;102004.16;5329990;26;20058;-71
2021/03/17 01:07:37;;;;;;;2.45;2.35;;;;;;;3.81;86.29;101999.87;5331209;26;20125;-72
2021/03/17 01:10:10;;;;;;;2.10;2.00;;;;;;;3.86;86.33;102010.22;5333898;26;20159;-71
2021/03/17 01:12:35;;;;;;;2.25;2.15;;;;;;;3.72;85.31;101986.91;5330056;26;20047;-70
2021/03/17 01:15:01;;;;;;;2.37;2.28;;;;;;;3.70;85.06;102005.06;5333860;26;20564;-71
2021/03/17 01:17:26;;;;;;;2.30;2.20;;;;;;;3.76;85.40;101999.84;5332431;26;20039;-71
2021/03/17 01:19:51;;;;;;;2.20;2.10;;;;;;;3.81;85.46;102012.84;5337001;26;20043;-71
2021/03/17 01:22:17;;;;;;;2.40;2.30;;;;;;;3.54;86.05;101962.72;5336235;26;20110;-73
2021/03/17 01:24:42;;;;;;;2.20;2.10;;;;;;;3.85;85.91;102011.97;5335127;26;20035;-71
2021/03/17 01:27:07;;;;;;;2.65;2.55;;;;;;;3.73;85.40;101983.44;5332126;26;20047;-71
2021/03/17 01:29:33;;;;;;;2.17;2.08;;;;;;;3.75;85.60;101992.09;5335064;26;20117;-71
2021/03/17 01:31:58;;;;;;;2.10;2.00;;;;;;;3.83;85.94;102005.91;5332648;26;20047;-71
2021/03/17 01:34:23;;;;;;;2.12;2.03;;;;;;;3.84;86.21;102005.03;5333122;26;20035;-70
2021/03/17 01:36:49;;;;;;;2.28;2.17;;;;;;;2.43;85.84;101788.31;5333013;26;20081;-71
2021/03/17 01:39:14;;;;;;;2.25;2.15;;;;;;;3.78;86.62;101998.12;5332370;26;20052;-71
2021/03/17 01:41:39;;;;;;;2.20;2.10;;;;;;;3.80;86.43;102003.31;5333061;26;20274;-71
2021/03/17 01:44:05;;;;;;;2.12;2.03;;;;;;;3.77;86.54;102001.59;5331931;26;20039;-71
2021/03/17 01:46:30;;;;;;;2.28;2.17;;;;;;;3.58;86.04;101980.00;5332750;26;20159;-71
2021/03/17 01:48:56;;;;;;;2.17;2.08;;;;;;;3.73;86.77;102014.59;5331614;26;20364;-71
2021/03/17 01:51:21;;;;;;;2.20;2.10;;;;;;;3.70;86.76;102006.81;5333760;26;20240;-72
2021/03/17 01:53:46;;;;;;;2.30;2.20;;;;;;;3.64;87.42;102010.28;5313333;26;20121;-71
2021/03/17 01:56:12;;;;;;;2.20;2.10;;;;;;;3.42;87.13;101967.94;5315955;26;20039;-71
2021/03/17 01:58:37;;;;;;;2.10;2.00;;;;;;;3.67;87.58;102022.38;5333748;26;20685;-71
2021/03/17 02:01:03;;;;;;;2.10;2.00;;;;;;;3.65;87.78;102017.22;5333316;26;20031;-71
2021/03/17 02:03:29;;;;;;;2.20;2.10;;;;;;;3.33;88.02;101976.59;5355455;26;20090;-71
2021/03/17 02:05:54;;;;;;;2.20;2.10;;;;;;;3.65;88.50;102021.50;5356622;26;20556;-72
2021/03/17 02:08:23;;;;;;;2.42;2.33;;;;;;;3.68;87.92;102014.59;5330900;26;20042;-71
2021/03/17 02:10:49;;;;;;;2.03;1.92;;;;;;;3.71;87.51;102026.69;5315858;26;20459;-71
2021/03/17 02:13:50;;;;;;;2.42;2.33;;;;;;;3.70;87.98;102022.38;5332537;26;20070;-71
2021/03/17 02:16:43;;;;;;;2.10;2.00;;;;;;;3.74;87.86;102024.09;5313054;26;20054;-71
2021/03/17 02:19:11;;;;;;;2.20;2.10;;;;;;;3.71;87.45;102031.88;5356655;26;20587;-71
2021/03/17 02:21:50;;;;;;;2.30;2.20;;;;;;;3.51;87.36;101993.88;5359290;26;20057;-72
2021/03/17 02:24:28;;;;;;;2.10;2.00;;;;;;;3.74;87.54;102031.91;5335926;26;20491;-72
2021/03/17 02:27:22;;;;;;;2.17;2.08;;;;;;;3.75;87.32;102033.63;5337992;26;20371;-71
2021/03/17 02:30:11;;;;;;;2.10;2.00;;;;;;;3.73;87.67;102022.38;5354878;26;20100;-71
2021/03/17 02:32:53;;;;;;;2.10;2.00;;;;;;;3.78;86.92;102031.00;5339219;26;20092;-71
2021/03/17 02:35:19;;;;;;;2.03;1.92;;;;;;;3.68;87.23;102024.97;5337591;26;20577;-70
2021/03/17 02:37:45;;;;;;;2.20;2.10;;;;;;;3.52;87.23;101986.94;5336384;26;20032;-71
2021/03/17 02:40:13;;;;;;;2.20;2.10;;;;;;;3.69;86.76;102036.22;5334079;26;20043;-71
2021/03/17 02:42:45;;;;;;;2.30;2.20;;;;;;;3.59;86.93;102025.00;5335133;26;20476;-71
2021/03/17 02:45:22;;;;;;;2.20;2.10;;;;;;;3.68;86.59;102034.50;5336087;26;20050;-71
2021/03/17 02:48:11;;;;;;;2.65;2.55;;;;;;;3.37;86.22;101991.31;5336543;26;20065;-71
2021/03/17 02:50:36;;;;;;;2.03;1.92;;;;;;;3.69;86.84;102039.69;5354471;26;20482;-71
2021/03/17 02:53:02;;;;;;;2.20;2.10;;;;;;;3.59;86.41;102038.84;5336999;26;20066;-71
2021/03/17 02:55:33;;;;;;;2.40;2.30;;;;;;;3.67;86.12;102050.94;5335983;26;20413;-71
2021/03/17 02:57:59;;;;;;;2.03;1.92;;;;;;;3.67;86.36;102043.16;5335965;26;20051;-71
2021/03/17 03:00:24;;;;;;;2.17;2.08;;;;;;;3.66;86.61;102054.41;5336853;26;20420;-71
2021/03/17 03:02:50;;;;;;;2.20;2.10;;;;;;;3.61;87.18;102049.25;5335685;26;20618;-71
2021/03/17 03:05:16;;;;;;;2.53;2.42;;;;;;;3.63;87.16;102049.22;5335134;26;20169;-70
2021/03/17 03:07:42;;;;;;;2.10;2.00;;;;;;;3.64;86.31;102050.94;5336065;26;20392;-71
2021/03/17 03:10:08;;;;;;;2.30;2.20;;;;;;;3.60;86.46;102042.31;5339864;26;20114;-72
2021/03/17 03:12:34;;;;;;;2.03;1.92;;;;;;;2.95;86.88;101968.87;5334789;26;20047;-71
2021/03/17 03:14:59;;;;;;;2.10;2.00;;;;;;;3.23;86.41;102008.63;5337637;26;20049;-71
2021/03/17 03:17:24;;;;;;;2.20;2.10;;;;;;;3.57;86.80;102044.91;5334873;26;20374;-71
2021/03/17 03:19:52;;;;;;;1.80;1.80;;;;;;;2.53;86.77;101874.69;5337993;26;20057;-71
2021/03/17 03:22:18;;;;;;;2.10;2.00;;;;;;;3.49;87.08;102037.13;5335041;26;20185;-70
2021/03/17 03:24:43;;;;;;;1.80;1.80;;;;;;;3.58;86.59;102050.09;5336276;26;20077;-70
2021/03/17 03:27:08;;;;;;;2.30;2.20;;;;;;;3.57;86.93;102045.78;5336139;26;20469;-71
2021/03/17 03:29:34;;;;;;;2.30;2.20;;;;;;;3.62;85.98;102050.94;5337165;26;20272;-70
2021/03/17 03:31:59;;;;;;;2.10;2.00;;;;;;;3.27;85.68;102009.47;5335300;26;20044;-71
2021/03/17 03:34:25;;;;;;;2.30;2.20;;;;;;;3.47;86.23;102027.59;5335968;26;20131;-71
2021/03/17 03:36:50;;;;;;;1.98;1.87;;;;;;;3.52;86.75;102050.09;5335402;26;20864;-71
2021/03/17 03:39:15;;;;;;;2.22;2.12;;;;;;;3.54;86.00;102035.38;5335787;26;20054;-70
2021/03/17 03:41:41;;;;;;;2.60;2.50;;;;;;;3.32;86.53;102018.97;5335292;26;20059;-70
2021/03/17 03:44:06;;;;;;;2.17;2.08;;;;;;;3.32;86.07;102023.31;5336285;26;20727;-71
2021/03/17 03:46:35;;;;;;;2.10;2.00;;;;;;;3.16;86.34;102002.56;5336941;26;20128;-71
2021/03/17 03:49:01;;;;;;;2.05;1.95;;;;;;;3.47;86.57;102054.44;5336641;26;20062;-71
2021/03/17 03:51:27;;;;;;;2.15;2.05;;;;;;;3.18;86.37;102011.19;5335693;26;20721;-71
2021/03/17 03:54:01;;;;;;;2.20;2.10;;;;;;;3.45;86.18;102052.69;5335157;26;20402;-71
2021/03/17 03:56:29;;;;;;;2.05;1.95;;;;;;;3.34;86.20;102034.53;5356212;26;20132;-71
2021/03/17 03:59:00;;;;;;;2.25;2.15;;;;;;;3.33;86.80;102036.28;5335618;26;20043;-71
2021/03/17 04:01:35;;;;;;;2.00;1.90;;;;;;;3.31;87.20;102039.75;5337570;26;20638;-71
2021/03/17 04:04:03;;;;;;;2.10;2.00;;;;;;;3.42;87.14;102056.16;5336118;26;20077;-71
2021/03/17 04:06:29;;;;;;;2.00;1.90;;;;;;;3.47;87.24;102050.97;5336097;26;20338;-71
2021/03/17 04:08:55;;;;;;;2.15;2.05;;;;;;;3.09;87.64;102000.00;5334486;26;20039;-71
2021/03/17 04:11:20;;;;;;;2.00;1.90;;;;;;;3.34;87.62;102057.91;5337286;26;20081;-71
2021/03/17 04:13:45;;;;;;;2.10;2.00;;;;;;;3.42;87.22;102044.94;5334535;26;20043;-71
2021/03/17 04:16:11;;;;;;;2.00;1.90;;;;;;;3.36;87.46;102050.97;5337220;26;20043;-71
2021/03/17 04:18:40;;;;;;;2.00;1.90;;;;;;;3.26;87.26;102038.88;5336608;26;20044;-71
2021/03/17 04:21:19;;;;;;;1.85;1.85;;;;;;;3.22;86.93;102042.34;5336857;26;20473;-71
2021/03/17 04:23:46;;;;;;;2.00;1.90;;;;;;;3.24;86.81;102048.38;5313900;26;20049;-71
2021/03/17 04:26:11;;;;;;;2.30;2.20;;;;;;;3.17;87.14;102035.44;5333196;26;20043;-71
2021/03/17 04:28:37;;;;;;;2.65;2.55;;;;;;;3.14;86.75;102039.75;5336543;26;20484;-71
2021/03/17 04:31:02;;;;;;;2.00;1.90;;;;;;;3.18;87.23;102055.28;5338146;26;20057;-71
2021/03/17 04:33:28;;;;;;;2.10;2.00;;;;;;;3.11;87.13;102055.31;5335538;26;20043;-71
2021/03/17 04:35:54;;;;;;;2.00;1.90;;;;;;;3.11;86.79;102056.19;5336402;26;20559;-71
2021/03/17 04:38:19;;;;;;;2.10;2.00;;;;;;;3.06;87.15;102049.25;5336330;26;20046;-71
2021/03/17 04:40:45;;;;;;;2.10;2.00;;;;;;;3.03;86.68;102042.34;5335836;26;20092;-71
2021/03/17 04:43:11;;;;;;;2.20;2.10;;;;;;;3.03;87.06;102063.09;5336558;26;20065;-71
2021/03/17 04:45:36;;;;;;;1.87;1.85;;;;;;;2.55;86.64;101986.97;5336748;26;20096;-71
2021/03/17 04:48:01;;;;;;;2.08;1.98;;;;;;;2.99;87.11;102058.75;5335767;26;20760;-71
2021/03/17 04:50:27;;;;;;;2.03;1.92;;;;;;;3.08;87.05;102074.31;5336858;26;20129;-71
2021/03/17 04:52:53;;;;;;;2.33;2.22;;;;;;;2.90;86.91;102056.16;5336909;26;20043;-71
2021/03/17 04:55:18;;;;;;;1.98;1.87;;;;;;;2.92;87.69;102055.28;5335638;26;20077;-72
2021/03/17 04:57:44;;;;;;;2.10;2.00;;;;;;;3.13;87.37;102076.94;5337314;26;20181;-72
2021/03/17 05:00:14;;;;;;;2.00;1.90;;;;;;;3.03;87.63;102086.44;5336722;26;20069;-72
2021/03/17 05:02:40;;;;;;;2.10;2.00;;;;;;;3.00;87.36;102089.00;5336304;26;20049;-72
2021/03/17 05:05:09;;;;;;;2.50;2.40;;;;;;;2.84;88.07;102071.69;5335788;26;20405;-71
2021/03/17 05:07:35;;;;;;;2.20;2.10;;;;;;;2.93;88.69;102079.50;5339126;26;20054;-71
2021/03/17 05:10:01;;;;;;;1.85;1.83;;;;;;;2.97;88.58;102092.47;5337957;26;20036;-71
2021/03/17 05:12:26;;;;;;;1.80;1.80;;;;;;;3.03;88.13;102090.72;5336993;26;20061;-72
2021/03/17 05:14:51;;;;;;;2.08;1.98;;;;;;;2.99;88.69;102098.53;5336894;26;20084;-72
2021/03/17 05:17:17;;;;;;;2.20;2.10;;;;;;;3.03;88.33;102093.31;5334138;26;20491;-71
2021/03/17 05:19:43;;;;;;;1.80;1.80;;;;;;;3.05;88.62;102089.00;5337762;26;20104;-72
2021/03/17 05:22:08;;;;;;;2.17;2.08;;;;;;;2.98;88.52;102093.31;5335834;26;20049;-71
2021/03/17 05:24:33;;;;;;;2.20;2.10;;;;;;;2.97;88.92;102087.28;5336112;26;20039;-72
2021/03/17 05:27:05;;;;;;;1.80;1.80;;;;;;;2.99;89.53;102084.69;5336817;26;20691;-71
2021/03/17 05:29:30;;;;;;;2.10;2.00;;;;;;;2.99;88.61;102089.88;5337388;26;20158;-71
2021/03/17 05:31:56;;;;;;;2.00;1.90;;;;;;;2.99;88.75;102087.28;5335162;26;20137;-71
2021/03/17 05:34:21;;;;;;;2.25;2.15;;;;;;;1.78;88.74;101884.06;5335995;26;20524;-71
2021/03/17 05:36:47;;;;;;;2.10;2.00;;;;;;;2.98;89.14;102104.56;5336366;26;20047;-72
2021/03/17 05:39:13;;;;;;;2.20;2.10;;;;;;;2.90;89.72;102088.13;5336871;26;20034;-71
2021/03/17 05:41:38;;;;;;;2.10;2.00;;;;;;;2.90;90.04;102089.84;5335342;26;20469;-71
2021/03/17 05:44:03;;;;;;;2.05;1.95;;;;;;;2.87;89.91;102082.09;5337304;26;20092;-71
2021/03/17 05:46:29;;;;;;;2.45;2.35;;;;;;;2.91;89.46;102089.88;5336183;26;20083;-72
2021/03/17 05:52:18;;;;;;;2.00;1.90;;;;;;;3.01;89.13;102116.69;5358323;26;20068;-74
2021/03/17 05:54:44;;;;;;;2.05;1.95;;;;;;;2.98;88.99;102093.31;5338988;26;20391;-73
2021/03/17 05:57:10;;;;;;;2.30;2.20;;;;;;;2.90;89.62;102080.34;5335826;26;20062;-73
2021/03/17 05:59:35;;;;;;;2.00;1.90;;;;;;;1.43;89.00;101827.00;5338551;26;20076;-72
2021/03/17 06:02:00;;;;;;;2.10;2.00;;;;;;;2.98;89.73;102091.59;5315495;26;20042;-73
2021/03/17 06:04:27;;;;;;;2.05;1.95;;;;;;;2.82;89.36;102076.00;5335221;26;20092;-72
2021/03/17 06:06:56;;;;;;;2.03;1.92;;;;;;;3.00;89.05;102109.75;5337503;26;20047;-73
2021/03/17 06:09:22;;;;;;;2.22;2.12;;;;;;;2.83;89.43;102080.31;5335134;26;20039;-72
2021/03/17 06:11:49;;;;;;;2.53;2.42;;;;;;;2.59;89.23;102035.34;5335992;26;20145;-71
2021/03/17 06:14:14;;;;;;;2.30;2.20;;;;;;;3.06;89.08;102107.16;5336786;26;20096;-71
2021/03/17 06:16:40;;;;;;;2.10;2.00;;;;;;;2.72;88.90;102063.00;5335869;26;20730;-71
2021/03/17 06:19:05;;;;;;;2.03;1.92;;;;;;;3.02;89.94;102110.63;5337081;26;20042;-71
2021/03/17 06:21:30;;;;;;;2.10;2.00;;;;;;;3.08;89.77;102112.38;5335525;26;20035;-71
2021/03/17 06:23:56;;;;;;;1.80;1.80;;;;;;;3.09;89.00;102114.09;5337057;26;20039;-72
2021/03/17 06:26:22;;;;;;;2.00;1.90;;;;;;;3.13;89.57;102110.66;5335835;26;20599;-72
2021/03/17 06:28:47;;;;;;;2.17;2.08;;;;;;;3.22;89.43;102105.47;5335559;26;20695;-71
2021/03/17 06:31:13;;;;;;;2.00;1.90;;;;;;;3.26;88.72;102114.13;5333579;26;20047;-72
2021/03/17 06:33:39;;;;;;;1.95;1.87;;;;;;;1.85;88.41;101864.22;5355187;26;20050;-72
2021/03/17 06:36:17;;;;;;;2.40;2.30;;;;;;;3.30;88.72;102106.31;5353082;26;20043;-72
2021/03/17 06:38:43;;;;;;;2.00;1.90;;;;;;;3.30;88.89;102102.88;5346806;26;20045;-72
2021/03/17 06:41:08;;;;;;;2.33;2.22;;;;;;;2.93;88.51;102041.47;5317729;26;20120;-72
2021/03/17 06:43:44;;;;;;;2.20;2.10;;;;;;;2.94;88.53;102034.53;5315927;26;20422;-72
2021/03/17 06:46:10;;;;;;;2.30;2.20;;;;;;;2.60;88.28;101962.78;5318548;26;20040;-72
2021/03/17 06:48:38;;;;;;;2.17;2.08;;;;;;;3.48;88.45;102102.00;5335024;26;20387;-73
2021/03/17 06:51:15;;;;;;;2.00;1.90;;;;;;;3.53;87.75;102098.56;5316990;26;20057;-71
2021/03/17 06:53:51;;;;;;;2.10;2.00;;;;;;;3.50;87.76;102100.28;5354079;26;20039;-72
2021/03/17 06:56:20;;;;;;;2.25;2.15;;;;;;;3.54;87.98;102097.69;5356819;26;20557;-71
2021/03/17 06:59:15;;;;;;;2.10;2.00;;;;;;;3.51;87.53;102097.69;5358162;26;20048;-71
2021/03/17 07:01:46;;;;;;;2.00;1.90;;;;;;;3.54;87.94;102094.22;5346828;26;20060;-72
2021/03/17 07:04:13;;;;;;;2.72;2.62;;;;;;;3.53;87.55;102115.88;5324832;26;20141;-73
2021/03/17 07:06:45;;;;;;;1.83;1.80;;;;;;;3.29;88.17;102068.28;5346500;26;20035;-73
2021/03/17 07:09:18;;;;;;;2.08;1.98;;;;;;;3.46;88.59;102095.97;5335548;26;20062;-71
2021/03/17 07:11:45;;;;;;;2.10;2.00;;;;;;;3.42;88.38;102096.81;5354147;26;20043;-71
2021/03/17 07:14:10;;;;;;;2.00;1.90;;;;;;;3.46;87.90;102094.22;5319182;26;20043;-72
2021/03/17 07:16:40;;;;;;;2.30;2.20;;;;;;;2.96;88.01;101999.09;5316082;26;20038;-73
2021/03/17 07:19:06;;;;;;;2.55;2.45;;;;;;;2.74;88.11;102001.66;5333406;26;20332;-74
2021/03/17 07:21:34;;;;;;;2.50;2.40;;;;;;;3.42;88.07;102055.31;5337665;26;20513;-76
2021/03/17 07:23:59;;;;;;;2.28;2.17;;;;;;;3.26;87.79;102013.78;5337811;26;20054;-76
2021/03/17 07:26:28;;;;;;;2.53;2.33;;;;;;;3.76;87.95;102090.72;5334845;26;20352;-73
2021/03/17 07:29:05;;;;;;;2.28;2.17;;;;;;;3.79;87.23;102085.56;5332315;26;20107;-75
2021/03/17 07:31:35;;;;;;;2.92;2.83;;;;;;;3.80;87.73;102081.22;5313045;26;20079;-74
2021/03/17 07:34:07;;;;;;;2.10;2.00;;;;;;;3.87;87.59;102090.72;5351807;26;20551;-76
2021/03/17 07:36:53;;;;;;;2.15;2.05;;;;;;;3.94;87.16;102087.25;5331688;26;20214;-75
2021/03/17 07:39:28;;;;;;;2.25;2.15;;;;;;;3.97;87.23;102089.84;5335535;26;20181;-72
2021/03/17 07:41:57;;;;;;;2.20;2.10;;;;;;;2.68;87.34;101876.41;5337024;26;20088;-76
2021/03/17 07:44:23;;;;;;;2.17;2.08;;;;;;;3.90;87.12;102085.50;5352628;26;20828;-73
2021/03/17 07:46:50;;;;;;;2.33;2.22;;;;;;;3.93;87.05;102105.41;5353263;26;20053;-74
2021/03/17 07:49:15;;;;;;;2.92;2.83;;;;;;;3.90;87.13;102074.28;5355358;26;20042;-74
2021/03/17 07:51:46;;;;;;;2.20;2.10;;;;;;;4.02;86.70;102083.78;5347606;26;20096;-74
2021/03/17 07:54:14;;;;;;;2.30;2.20;;;;;;;4.24;85.65;102115.75;5333926;26;20036;-72
2021/03/17 07:56:39;;;;;;;2.30;2.20;;;;;;;3.89;85.00;102095.91;5332485;26;20476;-71
2021/03/17 07:59:04;;;;;;;2.30;2.20;;;;;;;4.18;84.65;102108.84;5352372;26;20053;-75
2021/03/17 08:01:30;;;;;;;2.30;2.20;;;;;;;4.20;83.72;102112.28;5350721;26;20628;-75
2021/03/17 08:03:56;;;;;;;2.20;2.10;;;;;;;4.17;83.67;102110.56;5333643;26;20213;-74
2021/03/17 08:06:21;;;;;;;2.40;2.30;;;;;;;4.22;83.42;102110.56;5333308;26;20131;-75
2021/03/17 08:08:50;;;;;;;2.25;2.15;;;;;;;4.28;83.46;102118.31;5332125;26;20070;-74
2021/03/17 08:11:17;;;;;;;2.17;2.08;;;;;;;3.74;83.29;102003.34;5334115;26;20059;-75
2021/03/17 08:13:44;;;;;;;2.30;2.20;;;;;;;3.91;83.01;102063.87;5329353;26;20217;-77
2021/03/17 08:16:10;;;;;;;2.10;2.00;;;;;;;4.48;82.34;102115.66;5334679;26;20140;-72
2021/03/17 08:18:36;;;;;;;2.40;2.30;;;;;;;4.73;82.66;102137.22;5350665;26;20132;-72
2021/03/17 08:21:01;;;;;;;2.20;2.10;;;;;;;4.13;82.30;102017.03;5351770;26;20166;-72
2021/03/17 08:23:47;;;;;;;2.60;2.50;;;;;;;4.91;81.37;102119.78;5331622;26;20044;-72
2021/03/17 08:26:14;;;;;;;2.62;2.53;;;;;;;5.17;80.91;102143.91;5330561;26;20097;-71
2021/03/17 08:28:49;;;;;;;2.58;2.47;;;;;;;5.17;79.22;102111.81;5352397;26;20271;-72
2021/03/17 08:31:36;;;;;;;2.30;2.20;;;;;;;5.50;80.24;102141.94;5332350;26;20057;-74
2021/03/17 08:34:20;;;;;;;2.28;2.17;;;;;;;5.55;78.03;102136.69;5348346;26;20501;-75
2021/03/17 08:36:46;;;;;;;2.70;2.60;;;;;;;5.41;76.35;102128.97;5346752;26;20043;-75
2021/03/17 08:39:11;;;;;;;2.50;2.40;;;;;;;5.20;79.13;102130.88;5331588;26;20437;-74
2021/03/17 08:41:36;;;;;;;2.50;2.40;;;;;;;5.10;77.02;102138.75;5328603;26;20053;-72
2021/03/17 08:44:17;;;;;;;2.40;2.30;;;;;;;4.70;79.12;102094.75;5350636;26;20316;-74
2021/03/17 08:46:43;;;;;;;2.62;2.53;;;;;;;4.94;78.41;102118.03;5330718;26;20054;-73
2021/03/17 08:49:09;;;;;;;2.50;2.40;;;;;;;5.03;78.26;102143.09;5330894;26;20601;-76
2021/03/17 08:51:46;;;;;;;2.40;2.30;;;;;;;5.25;77.42;102129.97;5329010;26;20200;-73
2021/03/17 08:54:30;;;;;;;2.35;2.25;;;;;;;5.62;76.10;102130.56;5349540;26;20056;-75
2021/03/17 08:57:08;;;;;;;2.40;2.30;;;;;;;4.34;75.07;101951.97;5346564;26;20261;-74
2021/03/17 08:59:55;;;;;;;2.55;2.45;;;;;;;4.73;74.79;101983.78;5332246;26;20039;-73
2021/03/17 09:02:26;;;;;;;2.30;2.20;;;;;;;5.69;75.04;102142.66;5314758;26;20053;-75
2021/03/17 09:04:54;;;;;;;2.30;2.20;;;;;;;5.80;73.52;102139.94;5354348;26;20073;-74
2021/03/17 09:07:24;;;;;;;2.20;2.10;;;;;;;5.33;74.49;102047.47;5351465;26;20043;-76
2021/03/17 09:09:53;;;;;;;2.95;2.78;;;;;;;5.59;73.47;102141.00;5314936;26;20043;-75
2021/03/17 09:12:41;;;;;;;2.40;2.30;;;;;;;5.39;75.08;102151.56;5331019;26;20052;-72
2021/03/17 09:15:09;;;;;;;2.30;2.20;;;;;;;5.40;73.79;102145.50;5330391;26;20312;-74
2021/03/17 09:17:39;;;;;;;2.30;2.20;;;;;;;4.06;73.62;101966.00;5341489;26;20178;-73
2021/03/17 09:20:30;;;;;;;2.20;2.10;;;;;;;5.10;73.51;102152.63;5315398;26;20165;-74
2021/03/17 09:22:55;;;;;;;2.60;2.50;;;;;;;5.24;74.68;102149.94;5351001;26;20151;-74
2021/03/17 09:25:31;;;;;;;2.40;2.30;;;;;;;5.28;74.00;102141.22;5352600;26;20513;-73
2021/03/17 09:28:05;;;;;;;2.30;2.20;;;;;;;5.84;74.81;102146.88;5315033;26;20038;-75
2021/03/17 09:30:42;;;;;;;2.50;2.40;;;;;;;6.04;72.11;102151.06;5315800;26;20477;-74
2021/03/17 09:33:19;;;;;;;2.22;2.12;;;;;;;4.90;71.35;101934.22;5314234;26;20051;-74
2021/03/17 09:35:49;;;;;;;2.35;2.25;;;;;;;6.17;69.01;102143.09;5316165;26;20124;-75
2021/03/17 09:38:15;;;;;;;2.40;2.30;;;;;;;4.37;69.83;101910.38;5314961;26;20206;-77
2021/03/17 09:40:46;;;;;;;2.40;2.30;;;;;;;5.59;72.17;102141.87;5317332;26;20039;-77
2021/03/17 09:43:28;;;;;;;2.95;2.85;;;;;;;4.97;68.63;102085.91;5315785;26;20074;-74
2021/03/17 09:45:54;;;;;;;2.42;2.33;;;;;;;4.29;68.81;101982.34;5315687;26;20042;-76
2021/03/17 09:48:19;;;;;;;3.00;2.90;;;;;;;4.34;70.77;101985.75;5314689;26;20167;-76
2021/03/17 09:50:45;;;;;;;2.47;2.37;;;;;;;4.72;71.22;102012.41;5315554;26;20054;-76
2021/03/17 09:53:15;;;;;;;2.30;2.20;;;;;;;5.03;69.75;102111.03;5314111;26;20099;-74
2021/03/17 09:55:40;;;;;;;2.30;2.20;;;;;;;4.90;68.59;102076.44;5333471;26;20058;-76
2021/03/17 09:58:08;;;;;;;2.40;2.30;;;;;;;5.25;69.74;102132.56;5316503;26;20169;-76
2021/03/17 10:00:33;;;;;;;2.40;2.30;;;;;;;3.35;67.47;101831.31;5314061;26;20511;-76
2021/03/17 10:02:59;;;;;;;2.33;2.22;;;;;;;5.14;67.33;102140.47;5316121;26;20057;-71
2021/03/17 10:05:25;;;;;;;2.33;2.22;;;;;;;5.10;66.76;102143.97;5314813;26;20604;-74
2021/03/17 10:07:51;;;;;;;2.30;2.20;;;;;;;4.04;66.65;102069.03;5314498;26;20043;-75
2021/03/17 10:10:16;;;;;;;2.20;2.10;;;;;;;4.40;65.02;102055.03;5319889;26;20042;-75
2021/03/17 10:12:42;;;;;;;2.60;2.50;;;;;;;3.35;65.88;101917.78;5316218;26;20104;-75
2021/03/17 10:15:09;;;;;;;2.70;2.55;;;;;;;5.06;67.37;102153.50;5315204;26;20051;-76
2021/03/17 10:17:35;;;;;;;2.87;2.72;;;;;;;4.32;65.53;102029.09;5337385;26;20054;-73
2021/03/17 10:20:04;;;;;;;2.55;2.45;;;;;;;5.22;66.98;102146.47;5316554;26;20047;-75
2021/03/17 10:22:29;;;;;;;3.15;2.95;;;;;;;5.28;67.91;102158.59;5334549;26;20035;-71
2021/03/17 10:24:56;;;;;;;2.10;2.00;;;;;;;5.27;67.18;102164.66;5317623;26;20337;-71
2021/03/17 10:27:33;;;;;;;2.30;2.20;;;;;;;3.20;65.43;101846.03;5314658;26;20054;-71
2021/03/17 10:30:00;;;;;;;2.20;2.10;;;;;;;5.19;67.51;102156.91;5315625;26;20051;-71
2021/03/17 10:32:25;;;;;;;2.50;2.40;;;;;;;5.19;67.26;102155.19;5313216;26;20397;-74
2021/03/17 10:34:51;;;;;;;2.50;2.40;;;;;;;4.99;67.64;102157.00;5315855;26;20065;-74
2021/03/17 10:37:19;;;;;;;2.10;2.00;;;;;;;4.98;69.32;102156.16;5312354;26;20576;-76
2021/03/17 10:39:45;;;;;;;2.22;2.12;;;;;;;5.17;69.62;102148.22;5314899;26;20679;-73
2021/03/17 10:42:22;;;;;;;2.33;2.22;;;;;;;4.89;70.43;102077.31;5312420;26;20058;-74
2021/03/17 10:45:07;;;;;;;2.20;2.10;;;;;;;5.56;65.79;102154.91;5315912;26;20050;-74
2021/03/17 10:47:33;;;;;;;2.40;2.30;;;;;;;5.46;66.81;102162.81;5350602;26;20039;-72
2021/03/17 10:49:58;;;;;;;2.30;2.20;;;;;;;5.20;64.46;102151.69;5314654;26;20361;-73
2021/03/17 10:52:37;;;;;;;2.50;2.40;;;;;;;4.15;65.76;101948.63;5312443;26;20692;-76
2021/03/17 10:55:10;;;;;;;2.12;2.03;;;;;;;5.34;62.64;102141.19;5314425;26;20039;-72
2021/03/17 10:57:36;;;;;;;2.30;2.20;;;;;;;5.49;63.24;102128.91;5315660;26;20048;-73
2021/03/17 11:00:20;;;;;;;2.30;2.20;;;;;;;5.47;64.62;102133.28;5332831;26;20069;-73
2021/03/17 11:02:46;;;;;;;2.30;2.20;;;;;;;5.04;63.48;102069.41;5351521;26;20047;-75
2021/03/17 11:05:15;;;;;;;2.12;2.03;;;;;;;5.73;64.92;102133.94;5313570;26;20054;-74
2021/03/17 11:07:47;;;;;;;2.40;2.30;;;;;;;5.83;63.37;102132.09;5333348;26;20169;-74
2021/03/17 11:10:31;;;;;;;2.40;2.30;;;;;;;5.95;64.07;102136.38;5331123;26;20500;-71
2021/03/17 11:12:56;;;;;;;2.35;2.25;;;;;;;5.84;65.98;102135.59;5346222;26;20105;-71
2021/03/17 11:15:28;;;;;;;3.50;3.40;;;;;;;5.68;67.45;102130.50;5311846;26;20177;-71
2021/03/17 11:17:54;;;;;;;3.30;2.95;;;;;;;5.86;68.55;102132.09;5332751;26;20489;-71
2021/03/17 11:20:19;;;;;;;2.28;2.17;;;;;;;6.02;66.16;102122.41;5333172;26;20053;-70
2021/03/17 11:22:45;;;;;;;2.40;2.30;;;;;;;5.15;66.49;102025.97;5348241;26;20038;-71
2021/03/17 11:25:12;;;;;;;2.33;2.22;;;;;;;5.97;64.91;102126.78;5354830;26;20508;-71
2021/03/17 11:27:39;;;;;;;2.40;2.30;;;;;;;5.95;64.65;102128.53;5342689;26;20115;-71
2021/03/17 11:30:06;;;;;;;2.50;2.40;;;;;;;6.20;64.83;102129.16;5333282;26;20066;-72
2021/03/17 11:32:32;;;;;;;2.40;2.30;;;;;;;5.63;63.35;102019.44;5332436;26;20057;-71
2021/03/17 11:34:57;;;;;;;2.40;2.30;;;;;;;6.41;63.48;102133.25;5351181;26;20503;-72
2021/03/17 11:37:22;;;;;;;2.60;2.50;;;;;;;6.56;61.53;102137.44;5343930;26;20055;-71
2021/03/17 11:39:48;;;;;;;2.70;2.60;;;;;;;6.46;62.58;102135.84;5332182;26;20047;-71
2021/03/17 11:42:14;;;;;;;2.30;2.20;;;;;;;6.16;62.06;102133.53;5334107;26;20426;-71
2021/03/17 11:44:39;;;;;;;2.40;2.30;;;;;;;5.84;63.52;102136.44;5338066;26;20259;-71